Hiyodori — JD2366 — position and weather

sailwx.info

Track history (hours):
 
Tides and Currents Weather Stations Pressure Air Temp Water Temp Dewpoint Dewpoint Depression Visibility Wind Speed Wind Dir Waves Ship Positions

Hiyodori

Last reported at 2014-Aug-28 09:05 UTC. Time now 2014-Aug-28 15:22 UTC.
Position N 34°01' E 135°00'.

Length 88 m; draft 3.6 m.

Type: Cargo ship. MMSI: 431000132.

Date/timePositionNaut miles runAvg speedWind from/ knotsBaromVisibWave heightAir tempDewpointWater temp
2014-Aug-28 09:05N 34°01' E 135°00'611.9
2014-Aug-28 08:33N 34°08' E 134°59'1313.5
2014-Aug-28 07:33N 34°21' E 135°00'1312.6
2014-Aug-28 06:33N 34°31' E 135°10'1110.7
2014-Aug-28 05:33N 34°40' E 135°15'0 0.4
2014-Aug-28 04:33N 34°41' E 135°16'0 0.0
2014-Aug-28 03:33N 34°41' E 135°16'0 0.0
2014-Aug-28 02:24N 34°41' E 135°16'0 0.1
2014-Aug-28 01:33N 34°41' E 135°16'1 0.7
2014-Aug-28 00:33N 34°41' E 135°17'0 0.0
2014-Aug-27 23:33N 34°41' E 135°17'0 0.0
2014-Aug-27 22:33N 34°41' E 135°17'2 1.7
2014-Aug-27 21:32N 34°39' E 135°16'2811.3
2014-Aug-27 19:05N 34°15' E 134°60'611.2
2014-Aug-27 18:33N 34°09' E 134°60'21210.0
2014-Aug-26 21:18N 34°51' E 139°12'1012.4
2014-Aug-26 20:32N 34°56' E 139°22'1211.7
2014-Aug-26 19:33N 35°03' E 139°33'1313.2
2014-Aug-26 18:33N 35°11' E 139°45'1211.5
2014-Aug-26 17:33N 35°22' E 139°41'2 1.8
2014-Aug-26 16:33N 35°24' E 139°41'5 4.6
2014-Aug-26 15:33N 35°20' E 139°43'1211.5
2014-Aug-26 14:33N 35°09' E 139°45'1212.1
2014-Aug-26 13:33N 34°60' E 139°35'19 1.3
2014-Aug-25 22:20N 34°53' E 139°13'1113.6
2014-Aug-25 21:33N 34°59' E 139°24'1413.8
2014-Aug-25 20:33N 35°06' E 139°38'1212.3
2014-Aug-25 19:33N 35°17' E 139°45'8 8.2
2014-Aug-25 18:33N 35°24' E 139°41'0 0.0
2014-Aug-25 17:33N 35°24' E 139°41'0 0.0
2014-Aug-25 16:33N 35°24' E 139°41'1211.6
2014-Aug-25 15:33N 35°14' E 139°47'1313.4
2014-Aug-25 14:33N 35°03' E 139°37'  
2014-Aug-23 03:33N 35°18' E 139°44'7 6.7
2014-Aug-23 02:33N 35°24' E 139°41'0 0.0
2014-Aug-23 01:33N 35°24' E 139°41'0 0.0
2014-Aug-23 00:33N 35°24' E 139°41'2 1.7
2014-Aug-22 23:33N 35°22' E 139°41'1111.0
2014-Aug-22 22:33N 35°12' E 139°47'1212.0
2014-Aug-22 21:33N 35°02' E 139°40'1312.8
2014-Aug-22 20:33N 34°54' E 139°27'227 6.7
2014-Aug-21 10:27N 34°02' E 134°60'1112.0
2014-Aug-21 09:33N 34°12' E 134°58'1110.4
2014-Aug-21 08:32N 34°23' E 135°02'1212.0
2014-Aug-21 07:34N 34°31' E 135°12'1010.4
2014-Aug-21 06:34N 34°41' E 135°16'0 0.0
2014-Aug-21 05:34N 34°41' E 135°16'0 0.0
2014-Aug-21 04:33N 34°41' E 135°16'0 0.0
2014-Aug-21 03:33N 34°41' E 135°16'0 0.0
2014-Aug-21 02:33N 34°41' E 135°16'0 0.0
2014-Aug-21 01:33N 34°41' E 135°16'0 0.2
2014-Aug-21 00:33N 34°41' E 135°16'1010.5
2014-Aug-20 23:33N 34°31' E 135°11'1712.1
2014-Aug-20 22:09N 34°17' E 134°59'812.8
2014-Aug-20 21:32N 34°09' E 135°00'1312.6
2014-Aug-20 20:32N 33°56' E 135°02'185 9.7
2014-Aug-20 01:21N 35°00' E 138°33'35 2.5
2014-Aug-19 11:20N 34°55' E 139°15'910.6
2014-Aug-19 10:31N 34°59' E 139°24'1010.0
2014-Aug-19 09:33N 35°04' E 139°35'10 9.6
2014-Aug-19 08:34N 35°10' E 139°44'9 9.1
2014-Aug-19 07:34N 35°19' E 139°43'5 5.4
2014-Aug-19 06:34N 35°24' E 139°41'0 0.0
2014-Aug-19 05:34N 35°24' E 139°41'0 0.0
2014-Aug-19 04:33N 35°24' E 139°41'0 0.0
2014-Aug-19 03:33N 35°24' E 139°41'0 0.0
2014-Aug-19 02:33N 35°24' E 139°41'1 1.2
2014-Aug-19 01:31N 35°23' E 139°40'0 0.0
2014-Aug-19 00:28N 35°23' E 139°40'2 2.3
2014-Aug-18 23:33N 35°22' E 139°42'1010.2
2014-Aug-18 22:33N 35°12' E 139°47'1211.6
2014-Aug-18 21:33N 35°02' E 139°40'  
Track history (hours):
 
Tides and Currents Weather Stations Pressure Air Temp Water Temp Dewpoint Dewpoint Depression Visibility Wind Speed Wind Dir Waves Ship Positions

Hiyodori

Last reported at 2014-Aug-28 09:05 UTC. Time now 2014-Aug-28 15:22 UTC.
Position N 34°01' E 135°00'.

Length 88 m; draft 3.6 m.

Type: Cargo ship. MMSI: 431000132.

Date/timePositionNaut miles runAvg speedWind from/ knotsBaromVisibWave heightAir tempDewpointWater temp
2014-Aug-28 09:05N 34°01' E 135°00'611.9
2014-Aug-28 08:33N 34°08' E 134°59'1313.5
2014-Aug-28 07:33N 34°21' E 135°00'1312.6
2014-Aug-28 06:33N 34°31' E 135°10'1110.7
2014-Aug-28 05:33N 34°40' E 135°15'0 0.4
2014-Aug-28 04:33N 34°41' E 135°16'0 0.0
2014-Aug-28 03:33N 34°41' E 135°16'0 0.0
2014-Aug-28 02:24N 34°41' E 135°16'0 0.1
2014-Aug-28 01:33N 34°41' E 135°16'1 0.7
2014-Aug-28 00:33N 34°41' E 135°17'0 0.0
2014-Aug-27 23:33N 34°41' E 135°17'0 0.0
2014-Aug-27 22:33N 34°41' E 135°17'2 1.7
2014-Aug-27 21:32N 34°39' E 135°16'2811.3
2014-Aug-27 19:05N 34°15' E 134°60'611.2
2014-Aug-27 18:33N 34°09' E 134°60'21210.0
2014-Aug-26 21:18N 34°51' E 139°12'1012.4
2014-Aug-26 20:32N 34°56' E 139°22'1211.7
2014-Aug-26 19:33N 35°03' E 139°33'1313.2
2014-Aug-26 18:33N 35°11' E 139°45'1211.5
2014-Aug-26 17:33N 35°22' E 139°41'2 1.8
2014-Aug-26 16:33N 35°24' E 139°41'5 4.6
2014-Aug-26 15:33N 35°20' E 139°43'1211.5
2014-Aug-26 14:33N 35°09' E 139°45'1212.1
2014-Aug-26 13:33N 34°60' E 139°35'19 1.3
2014-Aug-25 22:20N 34°53' E 139°13'1113.6
2014-Aug-25 21:33N 34°59' E 139°24'1413.8
2014-Aug-25 20:33N 35°06' E 139°38'1212.3
2014-Aug-25 19:33N 35°17' E 139°45'8 8.2
2014-Aug-25 18:33N 35°24' E 139°41'0 0.0
2014-Aug-25 17:33N 35°24' E 139°41'0 0.0
2014-Aug-25 16:33N 35°24' E 139°41'1211.6
2014-Aug-25 15:33N 35°14' E 139°47'1313.4
2014-Aug-25 14:33N 35°03' E 139°37'  
2014-Aug-23 03:33N 35°18' E 139°44'7 6.7
2014-Aug-23 02:33N 35°24' E 139°41'0 0.0
2014-Aug-23 01:33N 35°24' E 139°41'0 0.0
2014-Aug-23 00:33N 35°24' E 139°41'2 1.7
2014-Aug-22 23:33N 35°22' E 139°41'1111.0
2014-Aug-22 22:33N 35°12' E 139°47'1212.0
2014-Aug-22 21:33N 35°02' E 139°40'1312.8
2014-Aug-22 20:33N 34°54' E 139°27'227 6.7
2014-Aug-21 10:27N 34°02' E 134°60'1112.0
2014-Aug-21 09:33N 34°12' E 134°58'1110.4
2014-Aug-21 08:32N 34°23' E 135°02'1212.0
2014-Aug-21 07:34N 34°31' E 135°12'1010.4
2014-Aug-21 06:34N 34°41' E 135°16'0 0.0
2014-Aug-21 05:34N 34°41' E 135°16'0 0.0
2014-Aug-21 04:33N 34°41' E 135°16'0 0.0
2014-Aug-21 03:33N 34°41' E 135°16'0 0.0
2014-Aug-21 02:33N 34°41' E 135°16'0 0.0
2014-Aug-21 01:33N 34°41' E 135°16'0 0.2
2014-Aug-21 00:33N 34°41' E 135°16'1010.5
2014-Aug-20 23:33N 34°31' E 135°11'1712.1
2014-Aug-20 22:09N 34°17' E 134°59'812.8
2014-Aug-20 21:32N 34°09' E 135°00'1312.6
2014-Aug-20 20:32N 33°56' E 135°02'185 9.7
2014-Aug-20 01:21N 35°00' E 138°33'35 2.5
2014-Aug-19 11:20N 34°55' E 139°15'910.6
2014-Aug-19 10:31N 34°59' E 139°24'1010.0
2014-Aug-19 09:33N 35°04' E 139°35'10 9.6
2014-Aug-19 08:34N 35°10' E 139°44'9 9.1
2014-Aug-19 07:34N 35°19' E 139°43'5 5.4
2014-Aug-19 06:34N 35°24' E 139°41'0 0.0
2014-Aug-19 05:34N 35°24' E 139°41'0 0.0
2014-Aug-19 04:33N 35°24' E 139°41'0 0.0
2014-Aug-19 03:33N 35°24' E 139°41'0 0.0
2014-Aug-19 02:33N 35°24' E 139°41'1 1.2
2014-Aug-19 01:31N 35°23' E 139°40'0 0.0
2014-Aug-19 00:28N 35°23' E 139°40'2 2.3
2014-Aug-18 23:33N 35°22' E 139°42'1010.2
2014-Aug-18 22:33N 35°12' E 139°47'1211.6
2014-Aug-18 21:33N 35°02' E 139°40'  

Dump ship's entire track history